Andover, MN

8:14 PM CST on December 22, 2014 (GMT -0600)
Lake John | Change Station
CLOSE
Current Station
Personal Weather Station
Location: Annandale, MN
Elevation: 1066 ft
Nearby Weather Stations

Elev 1066 ft 45.26 °N, 94.16 °W | Updated 9 minutes ago

Overcast
Overcast
34.5 °F
Feels Like 31 °F
N
3.7
Wind Variable Wind from East

Today
High -- | Low -- °F
--% Chance of Precip.
Yesterday
High -- | Low -- °F
Precip. -- in
7:53 AM 4:37 PM
New Moon, 1% visible
Pressure 29.61 in
Visibility 3.0 miles
Clouds Overcast 500 ft
Windchill 31 °F
Dew Point 34 °F
Humidity 97%
Rainfall 0.17 in
Snow Depth Not available.
UV 0 out of 12
Pollen .10 out of 12
Air Quality Not available.
Flu Activity Not available.
METAR KMGG 230155Z AUTO 08009KT 3SM -DZ OVC005 02/02 A2961 RMK AO2 T00230020

More Conditions Fewer Conditions

Pressure 29.61 in
Visibility 3.0 miles
Clouds Overcast 500 ft
Windchill 31 °F
Dew Point 34 °F
Humidity 97%
Rainfall 0.17 in
Snow Depth Not available.
UV 0 out of 12
Pollen .10 out of 12
Air Quality Not available.
Flu Activity Not available.
METAR KMGG 230155Z AUTO 08009KT 3SM -DZ OVC005 02/02 A2961 RMK AO2 T00230020

More Conditions Fewer Conditions

10-Day Weather Forecast

Almanac

Astronomy

Dec. 22, 2014 Rise Set
Actual Time
Civil Twilight
Nautical Twilight
Astronomical Twilight
Moon
Length of Visible Light
Length of Day
Tomorrow will be .
, % of the Moon is Illuminated

Today's Extremes

State Highs State Lows

Community

WunderPhotos

Upload Photos

1,779,761 photos uploaded!

WunderBlogs® & News

Nearby

Air Quality

  Air Quality AQ Index Pollutant
Not available.

Snow Depth

Station Depth Elevation

Earthquake Activity

City Distance Mag. Time & Date
Minimum magnitude displayed is 2.5.

Coastal Water Temperatures

Place Temperature

Nearby Weather Stations